sensor_id;sensor_type;location;lat;lon;timestamp;temperature;humidity
52245;DHT22;55759;51.586;-1.758;2023-06-05T00:00:25;10.80;75.90
52245;DHT22;55759;51.586;-1.758;2023-06-05T00:02:52;10.70;76.00
52245;DHT22;55759;51.586;-1.758;2023-06-05T00:05:17;10.60;76.40
52245;DHT22;55759;51.586;-1.758;2023-06-05T00:08:01;10.60;76.40
52245;DHT22;55759;51.586;-1.758;2023-06-05T00:10:42;10.50;76.40
52245;DHT22;55759;51.586;-1.758;2023-06-05T00:13:08;10.50;76.70
52245;DHT22;55759;51.586;-1.758;2023-06-05T00:15:36;10.40;77.00
52245;DHT22;55759;51.586;-1.758;2023-06-05T00:18:03;10.40;77.20
52245;DHT22;55759;51.586;-1.758;2023-06-05T00:20:31;10.30;77.20
52245;DHT22;55759;51.586;-1.758;2023-06-05T00:22:57;10.30;77.50
52245;DHT22;55759;51.586;-1.758;2023-06-05T00:25:23;10.20;77.70
52245;DHT22;55759;51.586;-1.758;2023-06-05T00:27:49;10.20;77.80
52245;DHT22;55759;51.586;-1.758;2023-06-05T00:30:15;10.20;78.10
52245;DHT22;55759;51.586;-1.758;2023-06-05T00:32:41;10.20;78.40
52245;DHT22;55759;51.586;-1.758;2023-06-05T00:35:07;10.10;78.30
52245;DHT22;55759;51.586;-1.758;2023-06-05T00:37:32;10.00;78.40
52245;DHT22;55759;51.586;-1.758;2023-06-05T00:39:59;10.00;78.50
52245;DHT22;55759;51.586;-1.758;2023-06-05T00:42:25;10.00;78.70
52245;DHT22;55759;51.586;-1.758;2023-06-05T00:44:52;9.90;78.80
52245;DHT22;55759;51.586;-1.758;2023-06-05T00:47:17;9.80;79.20
52245;DHT22;55759;51.586;-1.758;2023-06-05T00:49:43;9.80;79.30
52245;DHT22;55759;51.586;-1.758;2023-06-05T00:52:09;9.70;79.40
52245;DHT22;55759;51.586;-1.758;2023-06-05T00:54:34;9.70;79.60
52245;DHT22;55759;51.586;-1.758;2023-06-05T00:57:00;9.70;79.70
52245;DHT22;55759;51.586;-1.758;2023-06-05T00:59:27;9.60;79.90
52245;DHT22;55759;51.586;-1.758;2023-06-05T01:01:54;9.60;80.10
52245;DHT22;55759;51.586;-1.758;2023-06-05T01:04:20;9.60;80.20
52245;DHT22;55759;51.586;-1.758;2023-06-05T01:06:48;9.50;80.30
52245;DHT22;55759;51.586;-1.758;2023-06-05T01:09:16;9.50;80.40
52245;DHT22;55759;51.586;-1.758;2023-06-05T01:14:22;9.30;80.80
52245;DHT22;55759;51.586;-1.758;2023-06-05T01:16:49;9.30;80.90
52245;DHT22;55759;51.586;-1.758;2023-06-05T01:19:18;9.30;81.10
52245;DHT22;55759;51.586;-1.758;2023-06-05T01:21:45;9.20;81.20
52245;DHT22;55759;51.586;-1.758;2023-06-05T01:24:10;9.20;81.30
52245;DHT22;55759;51.586;-1.758;2023-06-05T01:29:47;9.10;81.40
52245;DHT22;55759;51.586;-1.758;2023-06-05T01:32:59;9.10;81.70
52245;DHT22;55759;51.586;-1.758;2023-06-05T01:35:07;9.00;81.90
52245;DHT22;55759;51.586;-1.758;2023-06-05T01:37:33;9.00;82.00
52245;DHT22;55759;51.586;-1.758;2023-06-05T01:40:01;8.90;82.10
52245;DHT22;55759;51.586;-1.758;2023-06-05T01:42:28;8.90;82.30
52245;DHT22;55759;51.586;-1.758;2023-06-05T01:44:54;8.90;82.40
52245;DHT22;55759;51.586;-1.758;2023-06-05T01:47:19;8.80;82.50
52245;DHT22;55759;51.586;-1.758;2023-06-05T01:49:46;8.80;82.60
52245;DHT22;55759;51.586;-1.758;2023-06-05T01:52:13;8.70;82.70
52245;DHT22;55759;51.586;-1.758;2023-06-05T01:54:38;8.70;82.80
52245;DHT22;55759;51.586;-1.758;2023-06-05T01:57:04;8.70;83.00
52245;DHT22;55759;51.586;-1.758;2023-06-05T01:59:30;8.70;83.00
52245;DHT22;55759;51.586;-1.758;2023-06-05T02:01:59;8.60;83.10
52245;DHT22;55759;51.586;-1.758;2023-06-05T02:04:25;8.60;83.30
52245;DHT22;55759;51.586;-1.758;2023-06-05T02:06:53;8.60;83.40
52245;DHT22;55759;51.586;-1.758;2023-06-05T02:09:18;8.60;83.60
52245;DHT22;55759;51.586;-1.758;2023-06-05T02:11:44;8.60;83.50
52245;DHT22;55759;51.586;-1.758;2023-06-05T02:14:12;8.60;83.70
52245;DHT22;55759;51.586;-1.758;2023-06-05T02:16:39;8.60;83.70
52245;DHT22;55759;51.586;-1.758;2023-06-05T02:19:05;8.60;83.80
52245;DHT22;55759;51.586;-1.758;2023-06-05T02:21:32;8.50;83.90
52245;DHT22;55759;51.586;-1.758;2023-06-05T02:24:04;8.50;84.00
52245;DHT22;55759;51.586;-1.758;2023-06-05T02:26:30;8.40;84.10
52245;DHT22;55759;51.586;-1.758;2023-06-05T02:28:56;8.40;84.20
52245;DHT22;55759;51.586;-1.758;2023-06-05T02:31:22;8.40;84.40
52245;DHT22;55759;51.586;-1.758;2023-06-05T02:33:52;8.40;84.40
52245;DHT22;55759;51.586;-1.758;2023-06-05T02:36:19;8.40;84.40
52245;DHT22;55759;51.586;-1.758;2023-06-05T02:38:44;8.30;84.50
52245;DHT22;55759;51.586;-1.758;2023-06-05T02:41:10;8.30;84.70
52245;DHT22;55759;51.586;-1.758;2023-06-05T02:43:36;8.30;84.70
52245;DHT22;55759;51.586;-1.758;2023-06-05T02:46:02;8.30;84.80
52245;DHT22;55759;51.586;-1.758;2023-06-05T02:48:27;8.20;84.80
52245;DHT22;55759;51.586;-1.758;2023-06-05T02:50:53;8.20;84.90
52245;DHT22;55759;51.586;-1.758;2023-06-05T02:53:18;8.20;85.00
52245;DHT22;55759;51.586;-1.758;2023-06-05T02:55:44;8.20;85.00
52245;DHT22;55759;51.586;-1.758;2023-06-05T02:58:10;8.20;85.10
52245;DHT22;55759;51.586;-1.758;2023-06-05T03:00:38;8.10;85.10
52245;DHT22;55759;51.586;-1.758;2023-06-05T03:03:03;8.10;85.20
52245;DHT22;55759;51.586;-1.758;2023-06-05T03:05:32;8.10;85.40
52245;DHT22;55759;51.586;-1.758;2023-06-05T03:07:57;8.10;85.60
52245;DHT22;55759;51.586;-1.758;2023-06-05T03:10:23;8.20;85.70
52245;DHT22;55759;51.586;-1.758;2023-06-05T03:12:48;8.30;85.50
52245;DHT22;55759;51.586;-1.758;2023-06-05T03:15:14;8.40;85.30
52245;DHT22;55759;51.586;-1.758;2023-06-05T03:17:40;8.50;85.00
52245;DHT22;55759;51.586;-1.758;2023-06-05T03:20:06;8.60;84.70
52245;DHT22;55759;51.586;-1.758;2023-06-05T03:22:34;8.80;84.20
52245;DHT22;55759;51.586;-1.758;2023-06-05T03:25:00;8.90;83.90
52245;DHT22;55759;51.586;-1.758;2023-06-05T03:27:25;9.00;83.60
52245;DHT22;55759;51.586;-1.758;2023-06-05T03:29:51;9.00;83.30
52245;DHT22;55759;51.586;-1.758;2023-06-05T03:32:16;9.10;83.10
52245;DHT22;55759;51.586;-1.758;2023-06-05T03:34:42;9.10;82.80
52245;DHT22;55759;51.586;-1.758;2023-06-05T03:37:08;9.20;82.70
52245;DHT22;55759;51.586;-1.758;2023-06-05T03:39:33;9.30;82.30
52245;DHT22;55759;51.586;-1.758;2023-06-05T03:41:59;9.30;82.10
52245;DHT22;55759;51.586;-1.758;2023-06-05T03:44:26;9.40;82.00
52245;DHT22;55759;51.586;-1.758;2023-06-05T03:46:51;9.40;81.80
52245;DHT22;55759;51.586;-1.758;2023-06-05T03:49:17;9.50;81.60
52245;DHT22;55759;51.586;-1.758;2023-06-05T03:51:43;9.50;81.00
52245;DHT22;55759;51.586;-1.758;2023-06-05T03:54:10;9.60;81.00
52245;DHT22;55759;51.586;-1.758;2023-06-05T03:56:35;9.50;80.70
52245;DHT22;55759;51.586;-1.758;2023-06-05T03:59:04;9.60;80.40
52245;DHT22;55759;51.586;-1.758;2023-06-05T04:01:44;9.60;80.30
52245;DHT22;55759;51.586;-1.758;2023-06-05T04:04:10;9.60;80.10
52245;DHT22;55759;51.586;-1.758;2023-06-05T04:06:36;9.70;79.90
52245;DHT22;55759;51.586;-1.758;2023-06-05T04:09:06;9.70;79.90
52245;DHT22;55759;51.586;-1.758;2023-06-05T04:11:40;9.60;80.00
52245;DHT22;55759;51.586;-1.758;2023-06-05T04:14:06;9.60;80.10
52245;DHT22;55759;51.586;-1.758;2023-06-05T04:16:33;9.70;80.00
52245;DHT22;55759;51.586;-1.758;2023-06-05T04:18:59;9.70;79.80
52245;DHT22;55759;51.586;-1.758;2023-06-05T04:21:25;9.80;79.70
52245;DHT22;55759;51.586;-1.758;2023-06-05T04:23:51;9.80;79.50
52245;DHT22;55759;51.586;-1.758;2023-06-05T04:26:17;9.90;79.50
52245;DHT22;55759;51.586;-1.758;2023-06-05T04:28:44;9.90;79.50
52245;DHT22;55759;51.586;-1.758;2023-06-05T04:31:10;10.00;79.30
52245;DHT22;55759;51.586;-1.758;2023-06-05T04:33:36;10.10;79.10
52245;DHT22;55759;51.586;-1.758;2023-06-05T04:36:05;10.10;78.70
52245;DHT22;55759;51.586;-1.758;2023-06-05T04:38:34;10.10;78.50
52245;DHT22;55759;51.586;-1.758;2023-06-05T04:41:00;10.10;78.60
52245;DHT22;55759;51.586;-1.758;2023-06-05T04:43:28;10.10;78.50
52245;DHT22;55759;51.586;-1.758;2023-06-05T04:45:54;10.10;78.60
52245;DHT22;55759;51.586;-1.758;2023-06-05T04:48:19;10.10;78.80
52245;DHT22;55759;51.586;-1.758;2023-06-05T04:50:45;10.10;78.70
52245;DHT22;55759;51.586;-1.758;2023-06-05T04:53:11;10.10;78.50
52245;DHT22;55759;51.586;-1.758;2023-06-05T04:55:36;10.20;78.50
52245;DHT22;55759;51.586;-1.758;2023-06-05T04:58:02;10.30;78.30
52245;DHT22;55759;51.586;-1.758;2023-06-05T05:00:29;10.40;78.20
52245;DHT22;55759;51.586;-1.758;2023-06-05T05:02:55;10.40;78.20
52245;DHT22;55759;51.586;-1.758;2023-06-05T05:05:20;10.40;78.00
52245;DHT22;55759;51.586;-1.758;2023-06-05T05:07:46;10.40;78.10
52245;DHT22;55759;51.586;-1.758;2023-06-05T05:10:12;10.40;78.10
52245;DHT22;55759;51.586;-1.758;2023-06-05T05:12:38;10.50;77.70
52245;DHT22;55759;51.586;-1.758;2023-06-05T05:15:03;10.60;77.70
52245;DHT22;55759;51.586;-1.758;2023-06-05T05:17:30;10.60;77.50
52245;DHT22;55759;51.586;-1.758;2023-06-05T05:19:55;10.70;77.30
52245;DHT22;55759;51.586;-1.758;2023-06-05T05:22:21;10.70;77.20
52245;DHT22;55759;51.586;-1.758;2023-06-05T05:24:52;10.80;77.20
52245;DHT22;55759;51.586;-1.758;2023-06-05T05:27:18;10.80;77.20
52245;DHT22;55759;51.586;-1.758;2023-06-05T05:29:43;10.80;77.20
52245;DHT22;55759;51.586;-1.758;2023-06-05T05:32:09;10.90;77.20
52245;DHT22;55759;51.586;-1.758;2023-06-05T05:34:35;10.90;77.00
52245;DHT22;55759;51.586;-1.758;2023-06-05T05:37:01;11.00;76.80
52245;DHT22;55759;51.586;-1.758;2023-06-05T05:39:28;11.10;76.70
52245;DHT22;55759;51.586;-1.758;2023-06-05T05:41:53;11.20;76.40
52245;DHT22;55759;51.586;-1.758;2023-06-05T05:44:40;11.30;76.30
52245;DHT22;55759;51.586;-1.758;2023-06-05T05:47:11;11.40;75.90
52245;DHT22;55759;51.586;-1.758;2023-06-05T05:49:37;11.40;75.70
52245;DHT22;55759;51.586;-1.758;2023-06-05T05:52:03;11.40;75.50
52245;DHT22;55759;51.586;-1.758;2023-06-05T05:54:29;11.40;75.50
52245;DHT22;55759;51.586;-1.758;2023-06-05T05:56:54;11.40;75.60
52245;DHT22;55759;51.586;-1.758;2023-06-05T05:59:20;11.40;75.70
52245;DHT22;55759;51.586;-1.758;2023-06-05T06:01:47;11.50;75.70
52245;DHT22;55759;51.586;-1.758;2023-06-05T06:04:14;11.60;75.60
52245;DHT22;55759;51.586;-1.758;2023-06-05T06:06:40;11.70;75.00
52245;DHT22;55759;51.586;-1.758;2023-06-05T06:09:08;11.70;74.80
52245;DHT22;55759;51.586;-1.758;2023-06-05T06:11:35;11.70;74.60
52245;DHT22;55759;51.586;-1.758;2023-06-05T06:14:01;11.80;74.60
52245;DHT22;55759;51.586;-1.758;2023-06-05T06:16:27;11.90;74.10
52245;DHT22;55759;51.586;-1.758;2023-06-05T06:18:52;11.90;74.20
52245;DHT22;55759;51.586;-1.758;2023-06-05T06:21:20;12.00;73.90
52245;DHT22;55759;51.586;-1.758;2023-06-05T06:23:46;11.90;73.80
52245;DHT22;55759;51.586;-1.758;2023-06-05T06:26:11;11.90;73.70
52245;DHT22;55759;51.586;-1.758;2023-06-05T06:28:40;12.00;73.80
52245;DHT22;55759;51.586;-1.758;2023-06-05T06:31:05;12.10;73.30
52245;DHT22;55759;51.586;-1.758;2023-06-05T06:33:31;12.10;72.80
52245;DHT22;55759;51.586;-1.758;2023-06-05T06:36:00;12.10;72.40
52245;DHT22;55759;51.586;-1.758;2023-06-05T06:38:26;12.10;72.30
52245;DHT22;55759;51.586;-1.758;2023-06-05T06:40:56;12.10;72.30
52245;DHT22;55759;51.586;-1.758;2023-06-05T06:43:23;12.10;72.50
52245;DHT22;55759;51.586;-1.758;2023-06-05T06:45:49;12.10;72.80
52245;DHT22;55759;51.586;-1.758;2023-06-05T06:48:16;12.10;72.70
52245;DHT22;55759;51.586;-1.758;2023-06-05T06:50:42;12.20;72.60
52245;DHT22;55759;51.586;-1.758;2023-06-05T06:53:08;12.20;72.80
52245;DHT22;55759;51.586;-1.758;2023-06-05T06:55:34;12.30;72.30
52245;DHT22;55759;51.586;-1.758;2023-06-05T06:57:59;12.40;72.10
52245;DHT22;55759;51.586;-1.758;2023-06-05T07:00:25;12.50;72.00
52245;DHT22;55759;51.586;-1.758;2023-06-05T07:02:51;12.70;71.50
52245;DHT22;55759;51.586;-1.758;2023-06-05T07:05:17;12.70;70.80
52245;DHT22;55759;51.586;-1.758;2023-06-05T07:07:45;12.80;70.60
52245;DHT22;55759;51.586;-1.758;2023-06-05T07:10:10;12.80;70.50
52245;DHT22;55759;51.586;-1.758;2023-06-05T07:12:36;12.80;70.80
52245;DHT22;55759;51.586;-1.758;2023-06-05T07:15:02;12.90;70.20
52245;DHT22;55759;51.586;-1.758;2023-06-05T07:17:28;13.10;69.50
52245;DHT22;55759;51.586;-1.758;2023-06-05T07:19:56;13.10;68.80
52245;DHT22;55759;51.586;-1.758;2023-06-05T07:22:22;13.10;68.70
52245;DHT22;55759;51.586;-1.758;2023-06-05T07:24:49;13.20;68.60
52245;DHT22;55759;51.586;-1.758;2023-06-05T07:27:15;13.40;68.10
52245;DHT22;55759;51.586;-1.758;2023-06-05T07:29:41;13.40;67.70
52245;DHT22;55759;51.586;-1.758;2023-06-05T07:32:07;13.60;67.40
52245;DHT22;55759;51.586;-1.758;2023-06-05T07:34:33;13.60;66.90
52245;DHT22;55759;51.586;-1.758;2023-06-05T07:36:59;13.70;66.70
52245;DHT22;55759;51.586;-1.758;2023-06-05T07:39:26;13.60;67.10
52245;DHT22;55759;51.586;-1.758;2023-06-05T07:41:51;13.70;66.70
52245;DHT22;55759;51.586;-1.758;2023-06-05T07:44:18;13.80;66.80
52245;DHT22;55759;51.586;-1.758;2023-06-05T07:46:46;13.90;66.50
52245;DHT22;55759;51.586;-1.758;2023-06-05T07:49:12;14.10;66.10
52245;DHT22;55759;51.586;-1.758;2023-06-05T07:51:38;14.20;65.80
52245;DHT22;55759;51.586;-1.758;2023-06-05T07:54:08;14.20;65.10
52245;DHT22;55759;51.586;-1.758;2023-06-05T07:56:33;14.10;65.30
52245;DHT22;55759;51.586;-1.758;2023-06-05T07:58:59;14.10;65.20
52245;DHT22;55759;51.586;-1.758;2023-06-05T08:01:26;14.20;65.60
52245;DHT22;55759;51.586;-1.758;2023-06-05T08:07:13;14.40;64.60
52245;DHT22;55759;51.586;-1.758;2023-06-05T08:09:40;14.60;64.40
52245;DHT22;55759;51.586;-1.758;2023-06-05T08:12:05;14.60;63.50
52245;DHT22;55759;51.586;-1.758;2023-06-05T08:14:32;14.70;63.50
52245;DHT22;55759;51.586;-1.758;2023-06-05T08:17:04;14.70;63.50
52245;DHT22;55759;51.586;-1.758;2023-06-05T08:19:30;14.80;63.20
52245;DHT22;55759;51.586;-1.758;2023-06-05T08:21:59;14.90;63.20
52245;DHT22;55759;51.586;-1.758;2023-06-05T08:24:25;15.00;63.10
52245;DHT22;55759;51.586;-1.758;2023-06-05T08:26:57;15.10;62.70
52245;DHT22;55759;51.586;-1.758;2023-06-05T08:29:25;15.20;62.40
52245;DHT22;55759;51.586;-1.758;2023-06-05T08:31:53;15.50;61.70
52245;DHT22;55759;51.586;-1.758;2023-06-05T08:34:34;15.60;61.00
52245;DHT22;55759;51.586;-1.758;2023-06-05T08:37:08;15.60;60.70
52245;DHT22;55759;51.586;-1.758;2023-06-05T08:39:34;15.40;61.10
52245;DHT22;55759;51.586;-1.758;2023-06-05T08:42:00;15.30;61.40
52245;DHT22;55759;51.586;-1.758;2023-06-05T08:44:27;15.30;61.90
52245;DHT22;55759;51.586;-1.758;2023-06-05T08:47:07;15.30;61.80
52245;DHT22;55759;51.586;-1.758;2023-06-05T08:49:40;15.30;61.40
52245;DHT22;55759;51.586;-1.758;2023-06-05T08:52:22;15.20;61.30
52245;DHT22;55759;51.586;-1.758;2023-06-05T08:54:58;15.20;61.40
52245;DHT22;55759;51.586;-1.758;2023-06-05T08:57:24;15.20;61.40
52245;DHT22;55759;51.586;-1.758;2023-06-05T09:02:58;15.20;61.50
52245;DHT22;55759;51.586;-1.758;2023-06-05T09:05:43;15.40;61.30
52245;DHT22;55759;51.586;-1.758;2023-06-05T09:11:22;15.60;61.00
52245;DHT22;55759;51.586;-1.758;2023-06-05T09:14:04;15.60;60.80
52245;DHT22;55759;51.586;-1.758;2023-06-05T09:16:40;15.80;60.90
52245;DHT22;55759;51.586;-1.758;2023-06-05T09:19:15;15.90;59.90
52245;DHT22;55759;51.586;-1.758;2023-06-05T09:21:51;16.00;59.60
52245;DHT22;55759;51.586;-1.758;2023-06-05T09:24:21;16.00;59.80
52245;DHT22;55759;51.586;-1.758;2023-06-05T09:29:35;16.10;60.10
52245;DHT22;55759;51.586;-1.758;2023-06-05T09:32:09;16.10;60.00
52245;DHT22;55759;51.586;-1.758;2023-06-05T09:34:55;16.20;59.20
52245;DHT22;55759;51.586;-1.758;2023-06-05T09:37:35;16.10;59.10
52245;DHT22;55759;51.586;-1.758;2023-06-05T09:40:04;16.10;59.10
52245;DHT22;55759;51.586;-1.758;2023-06-05T09:42:34;16.20;58.90
52245;DHT22;55759;51.586;-1.758;2023-06-05T09:45:40;16.40;58.50
52245;DHT22;55759;51.586;-1.758;2023-06-05T09:48:24;16.50;57.60
52245;DHT22;55759;51.586;-1.758;2023-06-05T09:51:14;16.70;57.40
52245;DHT22;55759;51.586;-1.758;2023-06-05T09:53:52;16.90;56.90
52245;DHT22;55759;51.586;-1.758;2023-06-05T09:56:21;17.30;55.20
52245;DHT22;55759;51.586;-1.758;2023-06-05T09:58:55;17.40;54.60
52245;DHT22;55759;51.586;-1.758;2023-06-05T10:07:21;17.60;53.70
52245;DHT22;55759;51.586;-1.758;2023-06-05T10:10:02;17.60;53.50
52245;DHT22;55759;51.586;-1.758;2023-06-05T10:12:30;17.90;53.40
52245;DHT22;55759;51.586;-1.758;2023-06-05T10:14:56;18.20;52.50
52245;DHT22;55759;51.586;-1.758;2023-06-05T10:17:22;18.40;52.10
52245;DHT22;55759;51.586;-1.758;2023-06-05T10:19:48;18.50;51.60
52245;DHT22;55759;51.586;-1.758;2023-06-05T10:22:16;18.50;50.70
52245;DHT22;55759;51.586;-1.758;2023-06-05T10:25:00;18.50;51.30
52245;DHT22;55759;51.586;-1.758;2023-06-05T10:32:32;18.90;50.50
52245;DHT22;55759;51.586;-1.758;2023-06-05T10:35:16;19.00;50.60
52245;DHT22;55759;51.586;-1.758;2023-06-05T10:40:11;18.70;50.30
52245;DHT22;55759;51.586;-1.758;2023-06-05T10:42:38;18.80;50.70
52245;DHT22;55759;51.586;-1.758;2023-06-05T10:45:19;19.10;50.50
52245;DHT22;55759;51.586;-1.758;2023-06-05T10:47:56;19.20;49.80
52245;DHT22;55759;51.586;-1.758;2023-06-05T10:50:21;19.20;48.90
52245;DHT22;55759;51.586;-1.758;2023-06-05T10:52:59;19.50;48.80
52245;DHT22;55759;51.586;-1.758;2023-06-05T10:55:25;19.90;48.20
52245;DHT22;55759;51.586;-1.758;2023-06-05T10:58:05;20.20;46.90
52245;DHT22;55759;51.586;-1.758;2023-06-05T11:06:20;19.60;48.50
52245;DHT22;55759;51.586;-1.758;2023-06-05T11:09:08;19.50;48.70
52245;DHT22;55759;51.586;-1.758;2023-06-05T11:14:53;19.60;48.70
52245;DHT22;55759;51.586;-1.758;2023-06-05T11:25:24;20.30;46.40
52245;DHT22;55759;51.586;-1.758;2023-06-05T11:27:57;20.40;46.70
52245;DHT22;55759;51.586;-1.758;2023-06-05T11:30:43;20.40;46.50
52245;DHT22;55759;51.586;-1.758;2023-06-05T11:33:12;20.30;46.80
52245;DHT22;55759;51.586;-1.758;2023-06-05T11:35:39;20.30;46.70
52245;DHT22;55759;51.586;-1.758;2023-06-05T11:41:05;21.00;45.50
52245;DHT22;55759;51.586;-1.758;2023-06-05T11:43:32;21.20;44.90
52245;DHT22;55759;51.586;-1.758;2023-06-05T11:46:00;21.50;45.00
52245;DHT22;55759;51.586;-1.758;2023-06-05T11:48:26;21.80;44.10
52245;DHT22;55759;51.586;-1.758;2023-06-05T11:51:07;21.90;43.20
52245;DHT22;55759;51.586;-1.758;2023-06-05T11:53:32;22.10;42.70
52245;DHT22;55759;51.586;-1.758;2023-06-05T11:58:56;24.60;38.20
52245;DHT22;55759;51.586;-1.758;2023-06-05T12:01:24;24.80;37.30
52245;DHT22;55759;51.586;-1.758;2023-06-05T12:04:03;25.00;37.30
52245;DHT22;55759;51.586;-1.758;2023-06-05T12:06:30;25.10;36.50
52245;DHT22;55759;51.586;-1.758;2023-06-05T12:09:11;24.80;36.90
52245;DHT22;55759;51.586;-1.758;2023-06-05T12:11:37;24.40;37.10
52245;DHT22;55759;51.586;-1.758;2023-06-05T12:14:07;23.80;38.00
52245;DHT22;55759;51.586;-1.758;2023-06-05T12:16:34;23.80;39.10
52245;DHT22;55759;51.586;-1.758;2023-06-05T12:19:18;25.10;37.90
52245;DHT22;55759;51.586;-1.758;2023-06-05T12:22:01;26.70;35.30
52245;DHT22;55759;51.586;-1.758;2023-06-05T12:24:40;27.10;33.20
52245;DHT22;55759;51.586;-1.758;2023-06-05T12:27:16;27.40;32.30
52245;DHT22;55759;51.586;-1.758;2023-06-05T12:29:52;27.20;32.80
52245;DHT22;55759;51.586;-1.758;2023-06-05T12:32:24;26.40;33.50
52245;DHT22;55759;51.586;-1.758;2023-06-05T12:34:51;25.60;34.80
52245;DHT22;55759;51.586;-1.758;2023-06-05T12:37:23;26.60;34.40
52245;DHT22;55759;51.586;-1.758;2023-06-05T12:39:56;29.60;31.00
52245;DHT22;55759;51.586;-1.758;2023-06-05T12:42:23;31.00;27.80
52245;DHT22;55759;51.586;-1.758;2023-06-05T12:44:49;31.10;27.90
52245;DHT22;55759;51.586;-1.758;2023-06-05T12:47:21;31.60;27.90
52245;DHT22;55759;51.586;-1.758;2023-06-05T12:49:49;31.30;27.30
52245;DHT22;55759;51.586;-1.758;2023-06-05T12:52:15;30.60;27.80
52245;DHT22;55759;51.586;-1.758;2023-06-05T12:54:41;30.90;27.60
52245;DHT22;55759;51.586;-1.758;2023-06-05T12:57:08;31.60;27.10
52245;DHT22;55759;51.586;-1.758;2023-06-05T12:59:57;32.10;26.70
52245;DHT22;55759;51.586;-1.758;2023-06-05T13:02:24;34.30;25.40
52245;DHT22;55759;51.586;-1.758;2023-06-05T13:04:51;36.80;22.60
52245;DHT22;55759;51.586;-1.758;2023-06-05T13:10:24;38.20;20.30
52245;DHT22;55759;51.586;-1.758;2023-06-05T13:12:50;36.60;21.20
52245;DHT22;55759;51.586;-1.758;2023-06-05T13:15:16;35.70;22.40
52245;DHT22;55759;51.586;-1.758;2023-06-05T13:17:44;36.80;21.60
52245;DHT22;55759;51.586;-1.758;2023-06-05T13:20:12;38.10;20.10
52245;DHT22;55759;51.586;-1.758;2023-06-05T13:25:33;38.80;19.50
52245;DHT22;55759;51.586;-1.758;2023-06-05T13:28:04;36.10;21.60
52245;DHT22;55759;51.586;-1.758;2023-06-05T13:30:30;34.80;22.90
52245;DHT22;55759;51.586;-1.758;2023-06-05T13:32:59;34.40;23.50
52245;DHT22;55759;51.586;-1.758;2023-06-05T13:35:25;35.80;22.90
52245;DHT22;55759;51.586;-1.758;2023-06-05T13:38:01;37.80;20.40
52245;DHT22;55759;51.586;-1.758;2023-06-05T13:40:32;38.30;19.30
52245;DHT22;55759;51.586;-1.758;2023-06-05T13:42:58;37.20;20.40
52245;DHT22;55759;51.586;-1.758;2023-06-05T13:45:24;38.00;20.30
52245;DHT22;55759;51.586;-1.758;2023-06-05T13:47:50;39.10;19.40
52245;DHT22;55759;51.586;-1.758;2023-06-05T13:50:17;39.40;18.80
52245;DHT22;55759;51.586;-1.758;2023-06-05T13:52:45;37.90;20.20
52245;DHT22;55759;51.586;-1.758;2023-06-05T13:55:11;35.10;22.40
52245;DHT22;55759;51.586;-1.758;2023-06-05T13:57:37;35.10;22.50
52245;DHT22;55759;51.586;-1.758;2023-06-05T14:00:08;35.60;22.40
52245;DHT22;55759;51.586;-1.758;2023-06-05T14:02:37;36.60;21.00
52245;DHT22;55759;51.586;-1.758;2023-06-05T14:05:03;37.80;20.40
52245;DHT22;55759;51.586;-1.758;2023-06-05T14:07:29;39.10;18.90
52245;DHT22;55759;51.586;-1.758;2023-06-05T14:09:54;40.20;18.30
52245;DHT22;55759;51.586;-1.758;2023-06-05T14:12:20;40.70;17.60
52245;DHT22;55759;51.586;-1.758;2023-06-05T14:14:46;39.10;19.30
52245;DHT22;55759;51.586;-1.758;2023-06-05T14:17:14;38.10;19.40
52245;DHT22;55759;51.586;-1.758;2023-06-05T14:19:40;35.90;21.40
52245;DHT22;55759;51.586;-1.758;2023-06-05T14:22:06;36.40;21.10
52245;DHT22;55759;51.586;-1.758;2023-06-05T14:24:35;37.90;20.00
52245;DHT22;55759;51.586;-1.758;2023-06-05T14:27:01;39.60;18.60
52245;DHT22;55759;51.586;-1.758;2023-06-05T14:29:29;40.30;17.80
52245;DHT22;55759;51.586;-1.758;2023-06-05T14:31:54;41.10;17.40
52245;DHT22;55759;51.586;-1.758;2023-06-05T14:34:20;42.00;17.00
52245;DHT22;55759;51.586;-1.758;2023-06-05T14:39:31;42.50;16.40
52245;DHT22;55759;51.586;-1.758;2023-06-05T14:41:57;42.30;16.60
52245;DHT22;55759;51.586;-1.758;2023-06-05T14:44:29;42.60;16.50
52245;DHT22;55759;51.586;-1.758;2023-06-05T14:46:54;43.10;16.10
52245;DHT22;55759;51.586;-1.758;2023-06-05T14:49:38;43.70;15.70
52245;DHT22;55759;51.586;-1.758;2023-06-05T14:52:03;44.40;15.60
52245;DHT22;55759;51.586;-1.758;2023-06-05T14:54:33;45.00;14.90
52245;DHT22;55759;51.586;-1.758;2023-06-05T14:56:58;44.90;14.90
52245;DHT22;55759;51.586;-1.758;2023-06-05T14:59:24;45.00;14.90
52245;DHT22;55759;51.586;-1.758;2023-06-05T15:01:49;44.70;15.20
52245;DHT22;55759;51.586;-1.758;2023-06-05T15:04:15;44.50;14.90
52245;DHT22;55759;51.586;-1.758;2023-06-05T15:06:40;43.50;15.30
52245;DHT22;55759;51.586;-1.758;2023-06-05T15:09:06;43.00;15.60
52245;DHT22;55759;51.586;-1.758;2023-06-05T15:11:32;42.70;15.90
52245;DHT22;55759;51.586;-1.758;2023-06-05T15:13:57;43.10;16.00
52245;DHT22;55759;51.586;-1.758;2023-06-05T15:16:23;43.90;15.60
52245;DHT22;55759;51.586;-1.758;2023-06-05T15:18:50;43.90;15.40
52245;DHT22;55759;51.586;-1.758;2023-06-05T15:21:15;44.10;15.50
52245;DHT22;55759;51.586;-1.758;2023-06-05T15:23:41;43.50;15.60
52245;DHT22;55759;51.586;-1.758;2023-06-05T15:26:07;43.00;16.00
52245;DHT22;55759;51.586;-1.758;2023-06-05T15:28:32;42.20;16.10
52245;DHT22;55759;51.586;-1.758;2023-06-05T15:30:58;41.70;16.60
52245;DHT22;55759;51.586;-1.758;2023-06-05T15:33:26;42.10;16.30
52245;DHT22;55759;51.586;-1.758;2023-06-05T15:35:56;42.20;16.60
52245;DHT22;55759;51.586;-1.758;2023-06-05T15:38:23;42.80;16.50
52245;DHT22;55759;51.586;-1.758;2023-06-05T15:40:58;43.40;15.90
52245;DHT22;55759;51.586;-1.758;2023-06-05T15:43:24;42.90;15.70
52245;DHT22;55759;51.586;-1.758;2023-06-05T15:45:50;42.40;16.40
52245;DHT22;55759;51.586;-1.758;2023-06-05T15:48:27;42.20;16.40
52245;DHT22;55759;51.586;-1.758;2023-06-05T15:50:53;40.40;17.30
52245;DHT22;55759;51.586;-1.758;2023-06-05T15:53:27;38.30;19.10
52245;DHT22;55759;51.586;-1.758;2023-06-05T15:55:52;37.00;20.10
52245;DHT22;55759;51.586;-1.758;2023-06-05T15:58:18;36.90;20.50
52245;DHT22;55759;51.586;-1.758;2023-06-05T16:00:46;36.80;20.50
52245;DHT22;55759;51.586;-1.758;2023-06-05T16:03:12;36.70;20.80
52245;DHT22;55759;51.586;-1.758;2023-06-05T16:05:48;37.10;20.00
52245;DHT22;55759;51.586;-1.758;2023-06-05T16:08:22;36.40;20.70
52245;DHT22;55759;51.586;-1.758;2023-06-05T16:10:50;36.80;20.40
52245;DHT22;55759;51.586;-1.758;2023-06-05T16:13:39;37.30;19.70
52245;DHT22;55759;51.586;-1.758;2023-06-05T16:16:53;38.20;19.10
52245;DHT22;55759;51.586;-1.758;2023-06-05T16:19:09;39.30;17.90
52245;DHT22;55759;51.586;-1.758;2023-06-05T16:21:37;39.00;18.20
52245;DHT22;55759;51.586;-1.758;2023-06-05T16:24:09;38.60;18.50
52245;DHT22;55759;51.586;-1.758;2023-06-05T16:26:41;37.90;19.20
52245;DHT22;55759;51.586;-1.758;2023-06-05T16:29:13;37.40;20.00
52245;DHT22;55759;51.586;-1.758;2023-06-05T16:31:46;37.60;19.80